createdAt,value
2018-07-28T00:00:28.023Z,80.03
2018-07-28T00:00:59.200Z,79.64
2018-07-28T00:01:30.309Z,79.76
2018-07-28T00:02:01.424Z,80.06
2018-07-28T00:02:32.604Z,79.26
2018-07-28T00:03:03.720Z,79.24
2018-07-28T00:03:34.924Z,79.90
2018-07-28T00:04:06.039Z,79.61
2018-07-28T00:04:37.143Z,79.46
2018-07-28T00:05:08.253Z,79.50
2018-07-28T00:05:39.439Z,79.73
2018-07-28T00:06:10.624Z,80.11
2018-07-28T00:06:41.741Z,79.86
2018-07-28T00:07:12.856Z,80.74
2018-07-28T00:07:44.017Z,80.34
2018-07-28T00:08:15.251Z,80.03
2018-07-28T00:08:46.436Z,80.43
2018-07-28T00:09:17.554Z,80.77
2018-07-28T00:09:48.728Z,80.78
2018-07-28T00:10:19.929Z,80.98
2018-07-28T00:10:51.039Z,81.11
2018-07-28T00:11:22.209Z,81.05
2018-07-28T00:11:53.364Z,80.64
2018-07-28T00:12:24.484Z,80.45
2018-07-28T00:12:55.656Z,80.85
2018-07-28T00:13:26.822Z,80.51
2018-07-28T00:13:58.044Z,80.99
2018-07-28T00:14:29.156Z,80.51
2018-07-28T00:15:00.265Z,80.70
2018-07-28T00:15:31.465Z,81.31
2018-07-28T00:16:02.608Z,81.37
2018-07-28T00:16:33.725Z,81.14
2018-07-28T00:17:04.876Z,80.88
2018-07-28T00:17:36.001Z,81.52
2018-07-28T00:18:07.107Z,81.04
2018-07-28T00:18:38.225Z,80.93
2018-07-28T00:19:09.415Z,81.47
2018-07-28T00:19:40.545Z,81.22
2018-07-28T00:20:11.721Z,81.27
2018-07-28T00:20:42.944Z,81.50
2018-07-28T00:21:14.083Z,81.45
2018-07-28T00:21:45.361Z,81.85
2018-07-28T00:22:16.574Z,81.71
2018-07-28T00:22:47.749Z,81.77
2018-07-28T00:23:18.908Z,82.48
2018-07-28T00:23:50.054Z,81.97
2018-07-28T00:24:21.282Z,81.82
2018-07-28T00:24:52.472Z,81.91
2018-07-28T00:25:23.625Z,81.85
2018-07-28T00:25:54.739Z,81.80
2018-07-28T00:26:25.868Z,81.96
2018-07-28T00:26:57.037Z,82.03
2018-07-28T00:27:28.212Z,82.81
2018-07-28T00:27:59.376Z,82.90
2018-07-28T00:28:30.538Z,82.44
2018-07-28T00:29:01.750Z,82.28
2018-07-28T00:29:32.917Z,82.45
2018-07-28T00:30:04.044Z,82.33
2018-07-28T00:30:35.256Z,82.28
2018-07-28T00:31:06.420Z,82.62
2018-07-28T00:31:37.637Z,82.31
2018-07-28T00:32:08.816Z,82.17
2018-07-28T00:32:39.983Z,82.27
2018-07-28T00:33:11.151Z,82.33
2018-07-28T00:33:42.334Z,82.32
2018-07-28T00:34:13.456Z,82.61
2018-07-28T00:34:44.606Z,82.36
2018-07-28T00:35:15.869Z,82.73
2018-07-28T00:35:47.096Z,83.32
2018-07-28T00:36:18.274Z,83.42
2018-07-28T00:36:49.480Z,83.02
2018-07-28T00:37:20.649Z,83.59
2018-07-28T00:37:51.768Z,82.81
2018-07-28T00:38:22.887Z,82.78
2018-07-28T00:38:54.057Z,82.55
2018-07-28T00:39:25.179Z,83.29
2018-07-28T00:39:56.296Z,82.94
2018-07-28T00:40:27.464Z,83.20
2018-07-28T00:40:58.582Z,82.59
2018-07-28T00:41:29.752Z,83.52
2018-07-28T00:42:00.901Z,83.12
2018-07-28T00:42:32.007Z,83.63
2018-07-28T00:43:03.122Z,83.00
2018-07-28T00:43:34.293Z,83.09
2018-07-28T00:44:05.564Z,83.37
2018-07-28T00:44:36.693Z,84.15
2018-07-28T00:45:07.921Z,83.62
2018-07-28T00:45:39.092Z,84.28
2018-07-28T00:46:10.212Z,84.21
2018-07-28T00:46:41.373Z,83.49
2018-07-28T00:47:12.495Z,84.16
2018-07-28T00:47:43.612Z,83.60
2018-07-28T00:48:14.792Z,84.20
2018-07-28T00:48:45.963Z,84.07
2018-07-28T00:49:17.088Z,83.53
2018-07-28T00:49:48.204Z,84.24
2018-07-28T00:50:19.357Z,84.21
2018-07-28T00:50:50.524Z,83.50
2018-07-28T00:51:21.689Z,83.94
2018-07-28T00:51:52.804Z,83.62
2018-07-28T00:52:23.915Z,83.93
2018-07-28T00:52:55.105Z,83.26
2018-07-28T00:53:26.281Z,83.70
2018-07-28T00:53:57.424Z,83.71
2018-07-28T00:54:28.544Z,83.49
2018-07-28T00:54:59.766Z,83.39
2018-07-28T00:55:30.899Z,83.83
2018-07-28T00:56:02.081Z,83.57
2018-07-28T00:56:33.198Z,83.22
2018-07-28T00:57:04.320Z,83.04
2018-07-28T00:57:35.489Z,83.31
2018-07-28T00:58:06.686Z,82.95
2018-07-28T00:58:37.868Z,83.47
2018-07-28T00:59:09.008Z,83.51
2018-07-28T00:59:40.182Z,83.42
2018-07-28T01:00:11.357Z,82.82
2018-07-28T01:00:42.539Z,83.25
2018-07-28T01:01:13.658Z,83.55
2018-07-28T01:01:44.824Z,83.31
2018-07-28T01:02:16.020Z,83.10
2018-07-28T01:02:47.188Z,83.75
2018-07-28T01:03:18.366Z,83.78
2018-07-28T01:03:49.594Z,83.21
2018-07-28T01:04:20.756Z,84.06
2018-07-28T01:04:51.874Z,84.14
2018-07-28T01:05:22.994Z,83.92
2018-07-28T01:05:54.151Z,83.73
2018-07-28T01:06:25.291Z,84.32
2018-07-28T01:06:56.457Z,83.58
2018-07-28T01:07:27.628Z,83.74
2018-07-28T01:07:58.746Z,83.80
2018-07-28T01:08:29.996Z,84.85
2018-07-28T01:09:01.186Z,84.20
2018-07-28T01:09:32.306Z,84.90
2018-07-28T01:10:03.411Z,84.17
2018-07-28T01:10:34.577Z,84.51
2018-07-28T01:11:05.731Z,84.80
2018-07-28T01:11:36.836Z,84.63
2018-07-28T01:12:08.028Z,84.22
2018-07-28T01:12:39.216Z,84.18
2018-07-28T01:13:10.323Z,84.80
2018-07-28T01:13:41.503Z,84.64
2018-07-28T01:14:12.675Z,84.86
2018-07-28T01:14:43.857Z,83.96
2018-07-28T01:15:15.026Z,84.21
2018-07-28T01:15:46.150Z,84.38
2018-07-28T01:16:17.314Z,83.98
2018-07-28T01:16:48.534Z,83.99
2018-07-28T01:17:19.700Z,84.14
2018-07-28T01:17:50.876Z,84.05
2018-07-28T01:18:22.040Z,84.48
2018-07-28T01:18:53.212Z,84.42
2018-07-28T01:19:24.333Z,84.08
2018-07-28T01:19:55.499Z,84.73
2018-07-28T01:20:26.632Z,84.76
2018-07-28T01:20:57.802Z,84.82
2018-07-28T01:21:28.919Z,84.86
2018-07-28T01:22:00.100Z,85.13
2018-07-28T01:22:31.208Z,84.90
2018-07-28T01:23:02.376Z,84.88
2018-07-28T01:23:33.487Z,85.08
2018-07-28T01:24:04.650Z,84.81
2018-07-28T01:24:35.832Z,84.83
2018-07-28T01:25:07.009Z,85.63
2018-07-28T01:25:38.181Z,85.06
2018-07-28T01:26:09.353Z,85.67
2018-07-28T01:26:40.480Z,85.01
2018-07-28T01:27:11.684Z,85.51
2018-07-28T01:27:42.846Z,84.87
2018-07-28T01:28:14.054Z,84.50
2018-07-28T01:28:45.213Z,85.55
2018-07-28T01:29:16.372Z,84.54
2018-07-28T01:29:47.493Z,85.20
2018-07-28T01:30:18.664Z,85.06
2018-07-28T01:30:49.999Z,84.37
2018-07-28T01:31:21.107Z,84.59
2018-07-28T01:31:52.212Z,84.53
2018-07-28T01:32:23.409Z,83.75
2018-07-28T01:32:54.572Z,83.88
2018-07-28T01:33:25.746Z,84.41
2018-07-28T01:33:56.925Z,84.20
2018-07-28T01:34:28.088Z,84.37
2018-07-28T01:34:59.264Z,83.84
2018-07-28T01:35:30.380Z,84.31
2018-07-28T01:36:01.485Z,84.53
2018-07-28T01:36:32.658Z,84.23
2018-07-28T01:37:03.833Z,83.73
2018-07-28T01:37:35.027Z,84.00
2018-07-28T01:38:06.176Z,83.44
2018-07-28T01:38:37.340Z,84.62
2018-07-28T01:39:08.615Z,84.38
2018-07-28T01:39:39.783Z,84.14
2018-07-28T01:40:10.960Z,84.17
2018-07-28T01:40:42.128Z,84.46
2018-07-28T01:41:13.307Z,84.73
2018-07-28T01:41:44.491Z,85.07
2018-07-28T01:42:15.595Z,84.22
2018-07-28T01:42:46.708Z,84.38
2018-07-28T01:43:17.877Z,84.45
2018-07-28T01:43:48.985Z,84.56
2018-07-28T01:44:20.153Z,84.47
2018-07-28T01:44:51.327Z,83.91
2018-07-28T01:45:22.521Z,84.26
2018-07-28T01:45:53.745Z,84.33
2018-07-28T01:46:24.963Z,84.60
2018-07-28T01:46:56.144Z,84.42
2018-07-28T01:47:27.372Z,84.04
2018-07-28T01:47:58.552Z,84.27
2018-07-28T01:48:29.775Z,84.62
2018-07-28T01:49:00.899Z,84.16
2018-07-28T01:49:32.072Z,84.15
2018-07-28T01:50:03.147Z,84.85
2018-07-28T01:50:34.270Z,85.16
2018-07-28T01:51:05.428Z,84.91
2018-07-28T01:51:36.689Z,85.47
2018-07-28T01:52:07.807Z,85.49
2018-07-28T01:52:38.980Z,84.98
2018-07-28T01:53:10.114Z,85.78
2018-07-28T01:53:41.338Z,85.36
2018-07-28T01:54:12.508Z,85.40
2018-07-28T01:54:43.691Z,85.11
2018-07-28T01:55:14.811Z,85.06
2018-07-28T01:55:45.933Z,85.85
2018-07-28T01:56:17.163Z,85.88
2018-07-28T01:56:48.394Z,85.33
2018-07-28T01:57:19.629Z,85.94
2018-07-28T01:57:50.813Z,85.86
2018-07-28T01:58:21.931Z,86.07
2018-07-28T01:58:53.104Z,85.85
2018-07-28T01:59:24.231Z,85.39
2018-07-28T01:59:55.412Z,85.99
2018-07-28T02:00:26.525Z,86.22
2018-07-28T02:00:57.700Z,86.11
2018-07-28T02:01:28.864Z,85.52
2018-07-28T02:02:00.040Z,85.57
2018-07-28T02:02:31.220Z,86.06
2018-07-28T02:03:02.496Z,86.14
2018-07-28T02:03:33.652Z,85.88
2018-07-28T02:04:04.814Z,86.11
2018-07-28T02:04:35.993Z,85.72
2018-07-28T02:05:07.162Z,85.24
2018-07-28T02:05:38.292Z,86.16
2018-07-28T02:06:09.469Z,85.87
2018-07-28T02:06:40.586Z,85.61
2018-07-28T02:07:11.696Z,85.93
2018-07-28T02:07:42.931Z,86.01
2018-07-28T02:08:14.150Z,85.38
2018-07-28T02:08:45.332Z,85.52
2018-07-28T02:09:16.448Z,86.15
2018-07-28T02:09:47.621Z,84.92
2018-07-28T02:10:18.853Z,85.18
2018-07-28T02:10:49.969Z,85.83
2018-07-28T02:11:21.087Z,85.70
2018-07-28T02:11:52.206Z,85.80
2018-07-28T02:12:23.389Z,85.15
2018-07-28T02:12:54.655Z,85.74
2018-07-28T02:13:25.897Z,85.10
2018-07-28T02:13:57.097Z,85.04
2018-07-28T02:14:28.210Z,86.09
2018-07-28T02:14:59.316Z,85.14
2018-07-28T02:15:30.479Z,86.20
2018-07-28T02:16:01.687Z,86.08
2018-07-28T02:16:32.799Z,85.79
2018-07-28T02:17:03.956Z,86.05
2018-07-28T02:17:35.079Z,86.00
2018-07-28T02:18:06.300Z,85.80
2018-07-28T02:18:37.516Z,85.55
2018-07-28T02:19:08.630Z,85.32
2018-07-28T02:19:39.804Z,85.80
2018-07-28T02:20:10.915Z,86.33
2018-07-28T02:20:42.084Z,86.28
2018-07-28T02:21:13.244Z,85.82
2018-07-28T02:21:44.511Z,86.00
2018-07-28T02:22:15.679Z,85.72
2018-07-28T02:22:46.852Z,85.97
2018-07-28T02:23:18.023Z,85.87
2018-07-28T02:23:49.256Z,85.34
2018-07-28T02:24:20.435Z,85.70
2018-07-28T02:24:51.543Z,84.65
2018-07-28T02:25:22.651Z,84.82
2018-07-28T02:25:53.769Z,85.22
2018-07-28T02:26:24.920Z,85.38
2018-07-28T02:26:56.025Z,85.45
2018-07-28T02:27:27.196Z,85.33
2018-07-28T02:27:58.376Z,85.60
2018-07-28T02:28:29.495Z,84.73
2018-07-28T02:29:00.669Z,85.06
2018-07-28T02:29:31.879Z,85.80
2018-07-28T02:30:03.062Z,84.93
2018-07-28T02:30:34.182Z,85.15
2018-07-28T02:31:05.345Z,85.32
2018-07-28T02:31:36.525Z,85.98
2018-07-28T02:32:07.691Z,85.88
2018-07-28T02:32:38.918Z,85.48
2018-07-28T02:33:10.096Z,85.55
2018-07-28T02:33:41.230Z,85.45
2018-07-28T02:34:12.448Z,85.49
2018-07-28T02:34:43.640Z,86.32
2018-07-28T02:35:14.800Z,86.25
2018-07-28T02:35:45.924Z,86.20
2018-07-28T02:36:17.071Z,86.48
2018-07-28T02:36:48.185Z,86.17
2018-07-28T02:37:19.300Z,86.17
2018-07-28T02:37:50.468Z,86.28
2018-07-28T02:38:21.589Z,86.77
2018-07-28T02:38:52.706Z,85.83
2018-07-28T02:39:23.940Z,86.81
2018-07-28T02:39:55.060Z,86.82
2018-07-28T02:40:26.176Z,86.31
2018-07-28T02:40:57.324Z,87.18
2018-07-28T02:41:28.485Z,86.63
2018-07-28T02:41:59.606Z,87.15
2018-07-28T02:42:30.789Z,86.58
2018-07-28T02:43:01.900Z,86.86
2018-07-28T02:43:33.116Z,87.36
2018-07-28T02:44:04.289Z,86.69
2018-07-28T02:44:35.473Z,86.85
2018-07-28T02:45:06.592Z,86.75
2018-07-28T02:45:37.743Z,86.75
2018-07-28T02:46:08.869Z,86.88
2018-07-28T02:46:40.056Z,86.65
2018-07-28T02:47:11.232Z,87.30
2018-07-28T02:47:42.366Z,86.80
2018-07-28T02:48:13.493Z,86.70
2018-07-28T02:48:44.658Z,87.54
2018-07-28T02:49:15.824Z,86.66
2018-07-28T02:49:46.997Z,86.69
2018-07-28T02:50:18.123Z,86.86
2018-07-28T02:50:49.321Z,87.26
2018-07-28T02:51:20.488Z,87.65
2018-07-28T02:51:51.771Z,87.62
2018-07-28T02:52:22.893Z,87.66
2018-07-28T02:52:54.092Z,87.42
2018-07-28T02:53:25.204Z,86.62
2018-07-28T02:53:56.364Z,87.42
2018-07-28T02:54:27.530Z,86.72
2018-07-28T02:54:58.712Z,86.60
2018-07-28T02:55:29.976Z,87.44
2018-07-28T02:56:01.154Z,86.95
2018-07-28T02:56:32.284Z,87.39
2018-07-28T02:57:03.427Z,86.63
2018-07-28T02:57:34.599Z,86.36
2018-07-28T02:58:05.816Z,86.71
2018-07-28T02:58:36.964Z,86.73
2018-07-28T02:59:08.075Z,87.23
2018-07-28T02:59:39.187Z,87.10
2018-07-28T03:00:10.419Z,87.13
2018-07-28T03:00:41.563Z,87.42
2018-07-28T03:01:12.684Z,87.68
2018-07-28T03:01:43.794Z,87.64
2018-07-28T03:02:14.965Z,87.38
2018-07-28T03:02:46.088Z,87.79
2018-07-28T03:03:17.313Z,87.42
2018-07-28T03:03:48.424Z,87.63
2018-07-28T03:04:19.592Z,87.92
2018-07-28T03:04:51.613Z,87.83
2018-07-28T03:05:22.784Z,87.67
2018-07-28T03:05:53.973Z,87.67
2018-07-28T03:06:25.140Z,87.54
2018-07-28T03:06:56.264Z,86.98
2018-07-28T03:07:27.372Z,87.55
2018-07-28T03:07:58.593Z,86.91
2018-07-28T03:08:29.818Z,87.28
2018-07-28T03:09:00.984Z,87.58
2018-07-28T03:09:32.167Z,87.66
2018-07-28T03:10:03.338Z,87.14
2018-07-28T03:10:34.495Z,87.43
2018-07-28T03:11:05.673Z,86.80
2018-07-28T03:11:36.840Z,86.70
2018-07-28T03:12:07.950Z,86.40
2018-07-28T03:12:39.064Z,86.73
2018-07-28T03:13:10.346Z,86.81
2018-07-28T03:13:41.524Z,86.51
2018-07-28T03:14:12.701Z,85.81
2018-07-28T03:14:43.862Z,86.24
2018-07-28T03:15:14.999Z,86.42
2018-07-28T03:15:46.137Z,86.57
2018-07-28T03:16:17.256Z,86.46
2018-07-28T03:16:48.360Z,86.70
2018-07-28T03:17:19.534Z,86.10
2018-07-28T03:17:50.717Z,86.35
2018-07-28T03:18:21.832Z,86.85
2018-07-28T03:18:52.984Z,85.87
2018-07-28T03:19:24.209Z,85.97
2018-07-28T03:19:55.380Z,86.69
2018-07-28T03:20:26.613Z,86.64
2018-07-28T03:20:57.842Z,86.38
2018-07-28T03:21:29.053Z,85.96
2018-07-28T03:22:00.232Z,85.88
2018-07-28T03:22:31.397Z,86.04
2018-07-28T03:23:02.569Z,86.05
2018-07-28T03:23:33.816Z,86.46
2018-07-28T03:24:05.036Z,85.82
2018-07-28T03:24:36.218Z,86.39
2018-07-28T03:25:07.337Z,85.75
2018-07-28T03:25:38.447Z,85.58
2018-07-28T03:26:09.632Z,85.76
2018-07-28T03:26:40.762Z,85.37
2018-07-28T03:27:11.997Z,85.93
2018-07-28T03:27:43.127Z,85.40
2018-07-28T03:28:14.301Z,85.95
2018-07-28T03:28:45.421Z,85.57
2018-07-28T03:29:16.577Z,86.08
2018-07-28T03:29:47.744Z,86.15
2018-07-28T03:30:18.916Z,85.85
2018-07-28T03:30:50.035Z,85.89
2018-07-28T03:31:21.142Z,84.95
2018-07-28T03:31:52.308Z,85.25
2018-07-28T03:32:23.487Z,84.41
2018-07-28T03:32:54.643Z,84.35
2018-07-28T03:33:25.820Z,84.35
2018-07-28T03:33:56.931Z,84.38
2018-07-28T03:34:28.149Z,84.87
2018-07-28T03:34:59.363Z,84.07
2018-07-28T03:35:30.536Z,84.65
2018-07-28T03:36:01.708Z,83.13
2018-07-28T03:36:32.816Z,82.84
2018-07-28T03:37:03.953Z,81.97
2018-07-28T03:37:35.071Z,81.51
2018-07-28T03:38:06.254Z,81.00
2018-07-28T03:38:37.368Z,80.89
2018-07-28T03:39:08.522Z,79.63
2018-07-28T03:39:39.685Z,80.01
2018-07-28T03:40:10.792Z,79.46
2018-07-28T03:40:41.903Z,78.86
2018-07-28T03:41:13.081Z,78.83
2018-07-28T03:41:44.187Z,78.89
2018-07-28T03:42:15.351Z,78.46
2018-07-28T03:42:46.576Z,78.60
2018-07-28T03:43:17.741Z,77.50
2018-07-28T03:43:48.976Z,77.58
2018-07-28T03:44:20.126Z,77.56
2018-07-28T03:44:51.337Z,76.59
2018-07-28T03:45:22.467Z,76.49
2018-07-28T03:45:53.632Z,75.76
2018-07-28T03:46:24.813Z,75.45
2018-07-28T03:46:55.958Z,75.03
2018-07-28T03:47:27.063Z,75.49
2018-07-28T03:47:58.259Z,74.48
2018-07-28T03:48:29.413Z,74.20
2018-07-28T03:49:00.752Z,75.05
2018-07-28T03:49:31.886Z,74.53
2018-07-28T03:50:03.002Z,74.37
2018-07-28T03:50:34.216Z,73.89
2018-07-28T03:51:05.651Z,74.10
2018-07-28T03:51:36.817Z,73.96
2018-07-28T03:52:08.008Z,72.94
2018-07-28T03:52:39.123Z,73.30
2018-07-28T03:53:10.345Z,72.39
2018-07-28T03:53:41.577Z,71.06
2018-07-28T03:54:12.762Z,70.52
2018-07-28T03:54:43.919Z,71.25
2018-07-28T03:55:15.085Z,71.35
2018-07-28T03:55:46.239Z,70.79
2018-07-28T03:56:17.408Z,70.95
2018-07-28T03:56:48.534Z,71.14
2018-07-28T03:57:19.729Z,70.89
2018-07-28T03:57:50.959Z,69.65
2018-07-28T03:58:22.083Z,69.38
2018-07-28T03:58:53.208Z,69.06
2018-07-28T03:59:24.374Z,68.49
2018-07-28T03:59:55.592Z,68.59
2018-07-28T04:00:26.776Z,67.78
2018-07-28T04:00:57.983Z,68.27
2018-07-28T04:01:29.099Z,67.90
2018-07-28T04:02:00.206Z,67.00
2018-07-28T04:02:31.424Z,66.61
2018-07-28T04:03:02.591Z,65.95
2018-07-28T04:03:33.708Z,65.75
2018-07-28T04:04:04.911Z,65.82
2018-07-28T04:04:36.004Z,64.80
2018-07-28T04:05:07.192Z,64.31
2018-07-28T04:05:38.336Z,64.20
2018-07-28T04:06:09.504Z,64.57
2018-07-28T04:06:40.712Z,64.10
2018-07-28T04:07:11.882Z,63.98
2018-07-28T04:07:43.100Z,62.76
2018-07-28T04:08:14.212Z,63.35
2018-07-28T04:08:45.424Z,63.01
2018-07-28T04:09:16.551Z,61.85
2018-07-28T04:09:47.671Z,62.82
2018-07-28T04:10:18.808Z,61.81
2018-07-28T04:10:49.989Z,62.18
2018-07-28T04:11:21.176Z,62.72
2018-07-28T04:11:52.358Z,61.58
2018-07-28T04:12:23.538Z,61.80
2018-07-28T04:12:54.732Z,61.48
2018-07-28T04:13:25.848Z,61.22
2018-07-28T04:13:57.105Z,61.14
2018-07-28T04:14:28.272Z,61.41
2018-07-28T04:14:59.379Z,60.75
2018-07-28T04:15:30.508Z,61.10
2018-07-28T04:16:01.623Z,61.17
2018-07-28T04:16:32.802Z,61.36
2018-07-28T04:17:03.924Z,61.62
2018-07-28T04:17:35.041Z,61.68
2018-07-28T04:18:06.272Z,61.43
2018-07-28T04:18:37.505Z,62.79
2018-07-28T04:19:08.760Z,62.81
2018-07-28T04:19:39.923Z,63.06
2018-07-28T04:20:11.104Z,63.41
2018-07-28T04:20:42.340Z,64.18
2018-07-28T04:21:13.467Z,64.79
2018-07-28T04:21:44.645Z,64.62
2018-07-28T04:22:15.890Z,64.90
2018-07-28T04:22:47.072Z,64.38
2018-07-28T04:23:18.268Z,64.15
2018-07-28T04:23:49.509Z,63.85
2018-07-28T04:24:20.733Z,63.00
2018-07-28T04:24:51.859Z,62.85
2018-07-28T04:25:23.004Z,61.93
2018-07-28T04:25:54.239Z,61.04
2018-07-28T04:26:25.360Z,60.71
2018-07-28T04:26:56.597Z,60.36
2018-07-28T04:27:27.763Z,59.80
2018-07-28T04:27:58.928Z,59.41
2018-07-28T04:28:30.148Z,59.23
2018-07-28T04:29:01.263Z,60.46
2018-07-28T04:29:32.448Z,59.79
2018-07-28T04:30:03.841Z,59.66
2018-07-28T04:30:35.031Z,60.16
2018-07-28T04:31:06.155Z,60.97
2018-07-28T04:31:37.274Z,62.04
2018-07-28T04:32:08.451Z,62.76
2018-07-28T04:32:39.632Z,62.66
2018-07-28T04:33:10.825Z,62.47
2018-07-28T04:33:42.043Z,63.30
2018-07-28T04:34:13.167Z,62.82
2018-07-28T04:34:44.337Z,63.73
2018-07-28T04:35:15.526Z,62.59
2018-07-28T04:35:46.992Z,63.81
2018-07-28T04:36:18.324Z,63.47
2018-07-28T04:36:49.564Z,63.87
2018-07-28T04:37:20.695Z,62.68
2018-07-28T04:37:52.099Z,62.81
2018-07-28T04:38:23.437Z,61.55
2018-07-28T04:38:54.716Z,60.91
2018-07-28T04:39:26.004Z,61.50
2018-07-28T04:39:57.239Z,61.17
2018-07-28T04:40:28.359Z,61.47
2018-07-28T04:40:59.615Z,62.00
2018-07-28T04:41:30.791Z,61.35
2018-07-28T04:42:01.944Z,62.25
2018-07-28T04:42:33.062Z,62.82
2018-07-28T04:43:04.271Z,62.91
2018-07-28T04:43:35.466Z,62.77
2018-07-28T04:44:06.683Z,63.10
2018-07-28T04:44:37.788Z,62.75
2018-07-28T04:45:08.912Z,62.82
2018-07-28T04:45:40.256Z,62.45
2018-07-28T04:46:11.436Z,61.85
2018-07-28T04:46:42.576Z,61.33
2018-07-28T04:47:13.902Z,60.50
2018-07-28T04:47:45.040Z,59.99
2018-07-28T04:48:16.262Z,59.29
2018-07-28T04:48:47.397Z,58.01
2018-07-28T04:49:18.524Z,57.47
2018-07-28T04:49:49.641Z,56.66
2018-07-28T04:50:20.764Z,56.72
2018-07-28T04:50:52.012Z,55.95
2018-07-28T04:51:23.121Z,56.00
2018-07-28T04:51:54.433Z,55.34
2018-07-28T04:52:25.600Z,55.07
2018-07-28T04:52:56.859Z,54.65
2018-07-28T04:53:28.020Z,54.03
2018-07-28T04:53:59.204Z,53.28
2018-07-28T04:54:30.492Z,53.00
2018-07-28T04:55:01.699Z,52.43
2018-07-28T04:55:32.872Z,51.96
2018-07-28T04:56:04.053Z,51.27
2018-07-28T04:56:35.180Z,50.35
2018-07-28T04:57:06.305Z,50.12
2018-07-28T04:57:37.420Z,49.54
2018-07-28T04:58:08.575Z,49.61
2018-07-28T04:58:39.749Z,48.60
2018-07-28T04:59:10.925Z,48.42
2018-07-28T04:59:42.137Z,48.44
2018-07-28T05:00:13.272Z,47.82
2018-07-28T05:00:44.450Z,47.99
2018-07-28T05:01:15.604Z,47.78
2018-07-28T05:01:46.809Z,47.33
2018-07-28T05:02:18.074Z,47.19
2018-07-28T05:02:49.249Z,46.80
2018-07-28T05:03:20.424Z,46.88
2018-07-28T05:03:51.593Z,46.62
2018-07-28T05:04:22.772Z,46.48
2018-07-28T05:04:53.878Z,46.60
2018-07-28T05:05:25.054Z,46.62
2018-07-28T05:05:56.275Z,46.75
2018-07-28T05:06:27.504Z,46.67
2018-07-28T05:06:58.619Z,46.17
2018-07-28T05:07:29.900Z,46.18
2018-07-28T05:08:00.952Z,46.05
2018-07-28T05:08:32.116Z,44.84
2018-07-28T05:09:03.345Z,45.44
2018-07-28T05:09:34.520Z,44.50
2018-07-28T05:10:05.726Z,44.62
2018-07-28T05:10:36.835Z,43.63
2018-07-28T05:11:08.045Z,44.28
2018-07-28T05:11:39.296Z,44.17
2018-07-28T05:12:10.428Z,44.22
2018-07-28T05:12:41.658Z,43.97
2018-07-28T05:13:12.879Z,43.58
2018-07-28T05:13:44.004Z,43.42
2018-07-28T05:14:15.232Z,42.97
2018-07-28T05:14:46.575Z,42.93
2018-07-28T05:15:17.763Z,42.97
2018-07-28T05:15:49.021Z,42.89
2018-07-28T05:16:20.250Z,42.86
2018-07-28T05:16:51.579Z,42.88
2018-07-28T05:17:22.757Z,42.65
2018-07-28T05:17:54.696Z,42.44
2018-07-28T05:18:25.812Z,42.38
2018-07-28T05:18:56.993Z,41.95
2018-07-28T05:19:28.109Z,41.64
2018-07-28T05:19:59.234Z,41.55
2018-07-28T05:20:30.410Z,41.47
2018-07-28T05:21:01.525Z,42.01
2018-07-28T05:21:32.675Z,41.64
2018-07-28T05:22:03.792Z,41.31
2018-07-28T05:22:34.907Z,41.41
2018-07-28T05:23:06.032Z,41.26
2018-07-28T05:23:37.162Z,41.09
2018-07-28T05:24:08.283Z,40.91
2018-07-28T05:24:39.455Z,40.79
2018-07-28T05:25:10.641Z,41.14
2018-07-28T05:25:41.932Z,41.01
2018-07-28T05:26:13.058Z,40.77
2018-07-28T05:26:44.227Z,41.12
2018-07-28T05:27:15.400Z,41.61
2018-07-28T05:27:46.537Z,42.39
2018-07-28T05:28:17.837Z,41.84
2018-07-28T05:28:49.105Z,41.81
2018-07-28T05:29:20.448Z,41.44
2018-07-28T05:29:51.565Z,41.58
2018-07-28T05:30:22.815Z,41.51
2018-07-28T05:30:54.075Z,42.26
2018-07-28T05:31:25.204Z,42.19
2018-07-28T05:31:56.566Z,42.35
2018-07-28T05:32:27.786Z,42.75
2018-07-28T05:32:58.911Z,43.10
2018-07-28T05:33:30.083Z,43.92
2018-07-28T05:34:01.209Z,42.95
2018-07-28T05:34:32.320Z,43.46
2018-07-28T05:35:03.487Z,43.19
2018-07-28T05:35:34.615Z,43.22
2018-07-28T05:36:05.767Z,44.20
2018-07-28T05:36:36.929Z,44.18
2018-07-28T05:37:08.148Z,43.70
2018-07-28T05:37:39.263Z,42.81
2018-07-28T05:38:10.439Z,43.81
2018-07-28T05:38:42.444Z,43.15
2018-07-28T05:39:13.737Z,43.35
2018-07-28T05:39:44.870Z,43.17
2018-07-28T05:40:16.056Z,43.20
2018-07-28T05:40:47.191Z,43.29
2018-07-28T05:41:18.365Z,42.66
2018-07-28T05:41:49.540Z,44.22
2018-07-28T05:42:20.837Z,43.90
2018-07-28T05:42:51.962Z,44.35
2018-07-28T05:43:23.170Z,43.95
2018-07-28T05:43:54.360Z,44.24
2018-07-28T05:44:25.576Z,44.39
2018-07-28T05:44:56.705Z,44.33
2018-07-28T05:45:27.936Z,44.49
2018-07-28T05:45:59.115Z,44.78
2018-07-28T05:46:30.300Z,44.54
2018-07-28T05:47:01.423Z,45.09
2018-07-28T05:47:32.649Z,44.78
2018-07-28T05:48:03.881Z,45.69
2018-07-28T05:48:35.012Z,45.66
2018-07-28T05:49:06.270Z,45.91
2018-07-28T05:49:37.406Z,46.02
2018-07-28T05:50:08.551Z,46.44
2018-07-28T05:50:39.731Z,46.26
2018-07-28T05:51:10.908Z,45.86
2018-07-28T05:51:42.096Z,46.25
2018-07-28T05:52:13.264Z,46.83
2018-07-28T05:52:44.423Z,45.93
2018-07-28T05:53:15.605Z,46.69
2018-07-28T05:53:46.784Z,46.01
2018-07-28T05:54:17.969Z,45.85
2018-07-28T05:54:49.139Z,46.45
2018-07-28T05:55:20.352Z,46.23
2018-07-28T05:55:51.461Z,45.56
2018-07-28T05:56:22.633Z,46.31
2018-07-28T05:56:53.805Z,46.55
2018-07-28T05:57:24.929Z,45.75
2018-07-28T05:57:56.055Z,46.30
2018-07-28T05:58:27.235Z,46.90
2018-07-28T05:58:58.439Z,46.96
2018-07-28T05:59:29.636Z,47.47
2018-07-28T06:00:00.847Z,46.99
2018-07-28T06:00:31.976Z,47.03
2018-07-28T06:01:03.154Z,48.10
2018-07-28T06:01:34.276Z,48.88
2018-07-28T06:02:05.510Z,48.95
2018-07-28T06:02:36.708Z,50.16
2018-07-28T06:03:07.883Z,49.12
2018-07-28T06:03:39.008Z,49.56
2018-07-28T06:04:10.271Z,48.18
2018-07-28T06:04:41.448Z,48.77
2018-07-28T06:05:12.718Z,50.10
2018-07-28T06:05:43.971Z,49.29
2018-07-28T06:06:15.105Z,49.56
2018-07-28T06:06:46.273Z,50.24
2018-07-28T06:07:17.538Z,50.64
2018-07-28T06:07:48.727Z,49.87
2018-07-28T06:08:19.912Z,50.49
2018-07-28T06:08:51.144Z,49.76
2018-07-28T06:09:22.329Z,50.43
2018-07-28T06:09:53.597Z,50.05
2018-07-28T06:10:24.796Z,50.79
2018-07-28T06:10:56.084Z,50.21
2018-07-28T06:11:27.455Z,50.81
2018-07-28T06:11:58.684Z,50.53
2018-07-28T06:12:29.969Z,51.45
2018-07-28T06:13:01.218Z,51.96
2018-07-28T06:13:32.403Z,52.58
2018-07-28T06:14:03.603Z,52.26
2018-07-28T06:14:34.775Z,52.06
2018-07-28T06:15:05.976Z,52.28
2018-07-28T06:15:37.210Z,52.56
2018-07-28T06:16:08.338Z,51.43
2018-07-28T06:16:39.504Z,51.47
2018-07-28T06:17:10.740Z,51.65
2018-07-28T06:17:41.904Z,50.36
2018-07-28T06:18:13.017Z,51.10
2018-07-28T06:18:44.200Z,49.28
2018-07-28T06:19:15.373Z,49.04
2018-07-28T06:19:46.561Z,49.99
2018-07-28T06:20:17.795Z,49.80
2018-07-28T06:20:48.981Z,49.58
2018-07-28T06:21:20.258Z,50.14
2018-07-28T06:21:51.493Z,49.68
2018-07-28T06:22:22.655Z,48.44
2018-07-28T06:22:53.841Z,49.58
2018-07-28T06:23:25.065Z,49.87
2018-07-28T06:23:56.356Z,48.10
2018-07-28T06:24:27.506Z,48.36
2018-07-28T06:24:58.711Z,48.47
2018-07-28T06:25:29.913Z,48.35
2018-07-28T06:26:01.119Z,47.88
2018-07-28T06:26:32.243Z,48.08
2018-07-28T06:27:03.417Z,48.77
2018-07-28T06:27:34.535Z,48.76
2018-07-28T06:28:05.716Z,47.67
2018-07-28T06:28:36.840Z,48.13
2018-07-28T06:29:07.959Z,47.37
2018-07-28T06:29:39.120Z,47.05
2018-07-28T06:30:10.401Z,47.64
2018-07-28T06:30:41.594Z,48.85
2018-07-28T06:31:12.730Z,48.56
2018-07-28T06:31:44.028Z,48.92
2018-07-28T06:32:15.188Z,49.04
2018-07-28T06:32:46.365Z,49.21
2018-07-28T06:33:17.546Z,49.62
2018-07-28T06:33:48.736Z,49.93
2018-07-28T06:34:19.955Z,49.87
2018-07-28T06:34:51.136Z,49.98
2018-07-28T06:35:22.547Z,48.70
2018-07-28T06:35:53.805Z,48.54
2018-07-28T06:36:25.002Z,48.39
2018-07-28T06:36:56.308Z,48.22
2018-07-28T06:37:27.528Z,48.85
2018-07-28T06:37:58.649Z,48.46
2018-07-28T06:38:29.842Z,48.32
2018-07-28T06:39:01.092Z,47.91
2018-07-28T06:39:32.229Z,47.87
2018-07-28T06:40:03.396Z,48.26
2018-07-28T06:40:34.585Z,48.75
2018-07-28T06:41:05.796Z,48.01
2018-07-28T06:41:37.061Z,48.15